»·PEaware :: N143VT KEUG-KBFI

N143VT :: KEUG-KBFI

FLIGHT INFORMATION

Flight Status: Arrived
Operator: Privately registered:
United States
More flights under this callsign
Pilot: Anonymous 16492 (16492)
Aircraft: ECLIPSE 500
(EA50)
More flights by this aircraft type
Origin: KEUG Mahlon Sweet
United States
Destination: KBFI Boeing Field/King Co Intl
United States
More flights between these airports :: More routes between these airports
Route: ALFOR V23 BTG OLM2
File this flight plan on PilotEdge
Remarks:
Altitude:
(Current/Filed)
31,000ft
Speed:
(Current/Filed)
330kts
Departed: 05-Jul-18 04:29 PM
Arrived: 05-Jul-18 05:22 PM
Distance/Time
Traveled:
208nm/0:53
Distance/Time
To Go:
Arrived

Flight Plot

Page will automatically refresh every two minutes.

Flight plan parsing failed; only flown route is shown


Map Options




Map Legend


Flown Route
Filed Route
Departure Airport
Arrival Airport
Navaid (VOR, NDB)
Fix

Horizontal Profiles

Position Reports

Time Latitude Longitude Heading Altitude Ground
Speed
05-Jul-18 16:01 44.115133 -123.215523 1 377ft 0kts
05-Jul-18 16:03 44.115133 -123.215523 1 377ft 0kts
05-Jul-18 16:04 44.115133 -123.215523 1 377ft 0kts
05-Jul-18 16:05 44.115133 -123.215523 1 377ft 0kts
05-Jul-18 16:06 44.115133 -123.215523 1 377ft 0kts
05-Jul-18 16:07 44.115133 -123.215523 1 377ft 0kts
05-Jul-18 16:08 44.115133 -123.215523 1 377ft 0kts
05-Jul-18 16:09 44.115133 -123.215523 1 377ft 0kts
05-Jul-18 16:10 44.115133 -123.215523 1 377ft 0kts
05-Jul-18 16:11 44.115133 -123.215523 1 377ft 0kts
05-Jul-18 16:12 44.115133 -123.215523 1 377ft 0kts
05-Jul-18 16:13 44.115133 -123.215523 1 377ft 0kts
05-Jul-18 16:14 44.115133 -123.215523 1 377ft 0kts
05-Jul-18 16:15 44.115133 -123.215523 1 377ft 0kts
05-Jul-18 16:16 44.115133 -123.215523 1 377ft 0kts
05-Jul-18 16:17 44.115133 -123.215523 1 377ft 0kts
05-Jul-18 16:18 44.115133 -123.215523 1 377ft 0kts
05-Jul-18 16:19 44.115133 -123.215523 1 377ft 0kts
05-Jul-18 16:20 44.115133 -123.215523 1 377ft 0kts
05-Jul-18 16:21 44.115133 -123.215523 1 377ft 0kts
05-Jul-18 16:22 44.115133 -123.215523 1 377ft 0kts
05-Jul-18 16:23 44.115402 -123.215568 337 377ft 5kts
05-Jul-18 16:24 44.118192 -123.216989 0 377ft 21kts
05-Jul-18 16:25 44.121168 -123.217034 356 377ft 25kts
05-Jul-18 16:26 44.129993 -123.217074 356 377ft 37kts
05-Jul-18 16:27 44.135288 -123.217657 287 377ft 0kts
05-Jul-18 16:28 44.135312 -123.218061 270 377ft 0kts
05-Jul-18 16:29 44.135314 -123.218449 272 377ft 8kts
05-Jul-18 16:30 44.116875 -123.218878 183 644ft 137kts
05-Jul-18 16:31 44.077155 -123.214329 178 2789ft 147kts
05-Jul-18 16:32 44.039860 -123.185518 90 4999ft 194kts
05-Jul-18 16:33 44.049487 -123.110521 58 7312ft 208kts
05-Jul-18 16:34 44.103782 -123.089044 4 9365ft 216kts
05-Jul-18 16:35 44.164768 -123.079229 4 11301ft 228kts
05-Jul-18 16:36 44.228746 -123.072040 4 13149ft 237kts
05-Jul-18 16:37 44.295250 -123.064667 4 14891ft 245kts
05-Jul-18 16:38 44.363930 -123.056755 4 16521ft 253kts
05-Jul-18 16:39 44.434774 -123.048272 4 18051ft 261kts
05-Jul-18 16:40 44.507510 -123.040378 2 19488ft 267kts
05-Jul-18 16:41 44.582323 -123.031459 4 20837ft 274kts
05-Jul-18 16:42 44.658097 -123.013816 13 22119ft 280kts
05-Jul-18 16:43 44.734554 -122.989661 13 23345ft 285kts
05-Jul-18 16:44 44.811894 -122.963221 14 24495ft 289kts
05-Jul-18 16:45 44.889118 -122.931628 18 25580ft 293kts
05-Jul-18 16:46 44.967323 -122.898996 15 26608ft 297kts
05-Jul-18 16:47 45.047384 -122.867842 15 27515ft 303kts
05-Jul-18 16:48 45.127076 -122.836784 15 28301ft 310kts
05-Jul-18 16:49 45.210472 -122.804179 15 29050ft 315kts
05-Jul-18 16:50 45.293866 -122.771445 15 29751ft 320kts
05-Jul-18 16:51 45.378784 -122.738013 15 30421ft 324kts
05-Jul-18 16:52 45.463371 -122.704578 14 30971ft 332kts
05-Jul-18 16:53 45.549914 -122.670335 14 30981ft 357kts
05-Jul-18 16:54 45.647253 -122.631639 15 30977ft 378kts
05-Jul-18 16:55 45.750812 -122.598101 350 30988ft 386kts
05-Jul-18 16:56 45.857097 -122.619703 345 31109ft 392kts
05-Jul-18 16:57 45.965512 -122.645900 344 31115ft 400kts
05-Jul-18 16:58 46.075590 -122.673301 344 31135ft 406kts
05-Jul-18 16:59 46.182274 -122.700184 345 29918ft 440kts
05-Jul-18 17:00 46.305335 -122.731225 346 28414ft 462kts
05-Jul-18 17:01 46.429743 -122.762720 346 26917ft 451kts
05-Jul-18 17:02 46.551641 -122.793780 346 25370ft 443kts
05-Jul-18 17:03 46.670316 -122.824145 347 23384ft 427kts
05-Jul-18 17:04 46.784147 -122.853407 347 21417ft 413kts
05-Jul-18 17:05 46.890957 -122.880972 348 19510ft 398kts
05-Jul-18 17:06 46.993430 -122.858841 37 17528ft 382kts
05-Jul-18 17:07 47.075139 -122.766976 43 15566ft 364kts
05-Jul-18 17:08 47.149206 -122.674586 44 13600ft 350kts
05-Jul-18 17:09 47.215196 -122.590445 45 13014ft 317kts
05-Jul-18 17:10 47.280629 -122.506204 44 11740ft 313kts
05-Jul-18 17:11 47.359380 -122.474754 357 10029ft 315kts
05-Jul-18 17:12 47.440368 -122.476855 357 8134ft 302kts
05-Jul-18 17:13 47.517540 -122.475419 357 6233ft 281kts
05-Jul-18 17:14 47.590793 -122.473567 358 4308ft 267kts
05-Jul-18 17:15 47.661051 -122.462188 42 3008ft 253kts
05-Jul-18 17:16 47.638897 -122.384794 164 2753ft 244kts
05-Jul-18 17:17 47.581372 -122.345656 148 902ft 206kts
05-Jul-18 17:18 47.546374 -122.316248 151 204ft 105kts
05-Jul-18 17:19 47.524823 -122.297502 150 346ft 90kts
05-Jul-18 17:20 47.509618 -122.305857 324 1112ft 107kts
05-Jul-18 17:21 47.537239 -122.332129 326 1132ft 113kts
05-Jul-18 17:22 47.545855 -122.316059 145 434ft 119kts
05-Jul-18 17:23 47.526807 -122.300168 220 23ft 13kts
05-Jul-18 17:24 47.526276 -122.301905 65 23ft 0kts
05-Jul-18 17:25 47.526276 -122.301905 65 23ft 0kts
05-Jul-18 17:26 47.526276 -122.301905 65 23ft 0kts
05-Jul-18 17:27 47.526276 -122.301905 65 23ft 0kts
05-Jul-18 17:27 47.526276 -122.301905 65 23ft 0kts
05-Jul-18 17:28 47.526276 -122.301905 65 23ft 0kts
05-Jul-18 17:29 47.526276 -122.301905 65 23ft 0kts
05-Jul-18 17:30 47.526276 -122.301905 65 23ft 0kts
05-Jul-18 17:31 47.526276 -122.301905 65 23ft 0kts
05-Jul-18 17:32 47.526276 -122.301905 65 23ft 0kts

Navigation Log

Ident Type
Flight plan parsing failed, navigation log unavailable